Time;durP1;ratioP1;P1;durP2;ratioP2;P2;SDS_P1;SDS_P2;PMS_P1;PMS_P2;Temp;Humidity;BMP_temperature;BMP_pressure;BME280_temperature;BME280_humidity;BME280_pressure;Samples;Min_cycle;Max_cycle;Signal;HPM_P1;HPM_P2
2024/01/04 00:01:18;;;;;;;2.08;0.95;;;;;;;7.32;100.00;99404.59;5052667;28;20031;-70
2024/01/04 00:03:43;;;;;;;3.97;0.95;;;;;;;7.22;100.00;99418.28;5051684;28;20051;-70
2024/01/04 00:06:09;;;;;;;1.05;0.73;;;;;;;7.15;100.00;99407.72;5051623;28;20036;-70
2024/01/04 00:08:34;;;;;;;3.05;0.80;;;;;;;7.14;100.00;99415.88;5051707;28;20114;-70
2024/01/04 00:11:04;;;;;;;0.50;0.50;;;;;;;7.10;100.00;99422.59;5051592;28;20166;-70
2024/01/04 00:13:30;;;;;;;0.60;0.60;;;;;;;7.09;100.00;99421.00;5051631;28;20111;-70
2024/01/04 00:15:55;;;;;;;0.85;0.60;;;;;;;7.09;100.00;99435.06;5051591;28;20158;-70
2024/01/04 00:18:20;;;;;;;1.17;0.47;;;;;;;7.10;100.00;99433.22;5051327;28;20685;-70
2024/01/04 00:20:47;;;;;;;2.63;0.80;;;;;;;7.16;100.00;99440.34;5051362;28;20473;-70
2024/01/04 00:23:12;;;;;;;0.55;0.50;;;;;;;7.14;100.00;99437.91;5051283;28;20037;-70
2024/01/04 00:25:37;;;;;;;2.85;0.82;;;;;;;7.18;100.00;99451.56;5051570;28;20044;-70
2024/01/04 00:28:03;;;;;;;0.77;0.70;;;;;;;7.18;100.00;99460.34;5051427;28;20116;-70
2024/01/04 00:30:28;;;;;;;1.02;0.60;;;;;;;7.19;100.00;99461.94;5051328;28;20112;-70
2024/01/04 00:32:54;;;;;;;1.95;0.80;;;;;;;7.17;100.00;99457.88;5051238;28;20504;-70
2024/01/04 00:35:19;;;;;;;2.45;1.27;;;;;;;7.22;100.00;99464.19;5050370;28;20376;-70
2024/01/04 00:37:44;;;;;;;3.58;1.38;;;;;;;7.25;100.00;99476.19;5051090;28;20047;-70
2024/01/04 00:40:11;;;;;;;3.20;1.83;;;;;;;7.21;100.00;99470.50;5050897;28;20036;-70
2024/01/04 00:42:36;;;;;;;3.33;1.23;;;;;;;7.28;100.00;99478.44;5051095;28;20037;-70
2024/01/04 00:45:02;;;;;;;5.95;1.50;;;;;;;7.32;100.00;99492.91;5050924;28;20053;-70
2024/01/04 00:47:27;;;;;;;5.10;1.70;;;;;;;7.36;100.00;99494.16;5051008;28;20472;-70
2024/01/04 00:49:52;;;;;;;4.47;1.65;;;;;;;7.35;100.00;99500.44;5050782;28;20028;-70
2024/01/04 00:52:18;;;;;;;2.40;1.63;;;;;;;7.39;100.00;99509.63;5050654;28;20059;-70
2024/01/04 00:54:43;;;;;;;5.53;2.40;;;;;;;7.38;100.00;99512.47;5050808;28;20067;-70
2024/01/04 00:57:09;;;;;;;3.20;1.65;;;;;;;7.38;100.00;99523.91;5051004;28;20032;-70
2024/01/04 00:59:34;;;;;;;4.82;1.63;;;;;;;7.33;100.00;99517.59;5050651;28;20029;-70
2024/01/04 01:01:59;;;;;;;6.70;1.98;;;;;;;7.40;100.00;99536.97;5050630;28;20040;-70
2024/01/04 01:04:25;;;;;;;5.82;1.30;;;;;;;7.39;100.00;99538.81;5050644;28;20062;-70
2024/01/04 01:06:50;;;;;;;4.15;1.45;;;;;;;7.38;100.00;99552.25;5050541;28;20498;-70
2024/01/04 01:09:16;;;;;;;6.43;1.23;;;;;;;7.28;100.00;99555.34;5050459;28;20111;-70
2024/01/04 01:11:41;;;;;;;1.13;0.90;;;;;;;7.28;100.00;99562.50;5050447;28;20036;-70
2024/01/04 01:14:06;;;;;;;5.60;1.67;;;;;;;7.21;100.00;99565.97;5050467;28;20021;-70
2024/01/04 01:16:32;;;;;;;5.05;1.13;;;;;;;7.23;100.00;99581.66;5050200;28;20465;-70
2024/01/04 01:18:57;;;;;;;4.80;1.50;;;;;;;7.24;100.00;99580.66;5050264;28;20037;-70
2024/01/04 01:21:22;;;;;;;5.60;1.38;;;;;;;7.20;100.00;99576.78;5050168;28;20025;-70
2024/01/04 01:23:48;;;;;;;2.45;1.40;;;;;;;7.23;100.00;99587.81;5032511;28;20036;-70
2024/01/04 01:26:13;;;;;;;3.20;1.40;;;;;;;7.25;100.00;99598.19;5050158;28;20032;-70
2024/01/04 01:28:38;;;;;;;12.00;2.75;;;;;;;7.23;100.00;99594.91;5050207;28;20033;-70
2024/01/04 01:31:04;;;;;;;4.97;2.25;;;;;;;7.23;100.00;99595.75;5048798;28;20033;-70
2024/01/04 01:33:29;;;;;;;6.35;2.03;;;;;;;7.29;100.00;99609.22;5049952;28;20056;-70
2024/01/04 01:35:55;;;;;;;6.97;2.00;;;;;;;7.28;100.00;99597.78;5049938;28;20515;-70
2024/01/04 01:38:20;;;;;;;7.60;1.55;;;;;;;7.29;100.00;99601.25;5049771;28;20033;-70
2024/01/04 01:40:45;;;;;;;3.35;2.30;;;;;;;7.31;100.00;99604.50;5049857;28;20025;-70
2024/01/04 01:43:11;;;;;;;6.93;1.67;;;;;;;7.31;100.00;99612.47;5049760;28;20041;-70
2024/01/04 01:45:37;;;;;;;4.65;2.10;;;;;;;7.26;100.00;99602.50;5048364;28;20055;-70
2024/01/04 01:48:04;;;;;;;4.90;1.15;;;;;;;7.34;100.00;99630.63;5048711;28;20035;-70
2024/01/04 01:50:31;;;;;;;6.00;1.70;;;;;;;7.34;100.00;99622.69;5049539;28;20422;-70
2024/01/04 01:52:57;;;;;;;1.90;1.25;;;;;;;7.33;100.00;99627.16;5049608;28;20562;-70
2024/01/04 01:55:24;;;;;;;9.90;2.47;;;;;;;7.34;100.00;99644.72;5048213;28;20045;-70
2024/01/04 01:57:50;;;;;;;8.10;3.08;;;;;;;7.35;100.00;99648.97;5049489;28;20032;-70
2024/01/04 02:00:16;;;;;;;6.47;2.30;;;;;;;7.33;100.00;99642.25;5049902;28;20071;-70
2024/01/04 02:02:47;;;;;;;6.00;1.90;;;;;;;7.38;100.00;99650.41;5049458;28;20049;-70
2024/01/04 02:05:13;;;;;;;3.92;1.50;;;;;;;7.38;100.00;99661.81;5049551;28;20033;-70
2024/01/04 02:07:39;;;;;;;6.78;1.70;;;;;;;7.39;100.00;99668.78;5049464;28;20028;-70
2024/01/04 02:10:06;;;;;;;8.73;2.85;;;;;;;7.39;100.00;99665.31;5049312;28;20489;-70
2024/01/04 02:12:31;;;;;;;9.70;2.78;;;;;;;7.41;100.00;99672.06;5049352;28;20037;-70
2024/01/04 02:14:57;;;;;;;5.75;1.80;;;;;;;7.40;100.00;99664.28;5049296;28;20046;-70
2024/01/04 02:17:23;;;;;;;3.90;2.00;;;;;;;7.43;100.00;99675.28;5048030;28;20047;-70
2024/01/04 02:19:48;;;;;;;7.30;2.28;;;;;;;7.42;100.00;99676.31;5049085;28;20052;-70
2024/01/04 02:22:14;;;;;;;6.65;1.83;;;;;;;7.43;100.00;99680.59;5049229;28;20025;-70
2024/01/04 02:24:40;;;;;;;8.90;2.92;;;;;;;7.45;100.00;99694.47;5049308;28;20375;-70
2024/01/04 02:27:05;;;;;;;8.02;2.67;;;;;;;7.46;100.00;99698.75;5047887;28;20036;-70
2024/01/04 02:29:31;;;;;;;3.60;1.88;;;;;;;7.47;100.00;99699.59;5049115;28;20048;-70
2024/01/04 02:31:56;;;;;;;6.20;2.30;;;;;;;7.49;100.00;99702.03;5047678;28;20033;-70
2024/01/04 02:34:22;;;;;;;6.15;2.40;;;;;;;7.49;100.00;99700.19;5047638;28;20029;-70
2024/01/04 02:36:47;;;;;;;10.30;2.50;;;;;;;7.51;100.00;99708.75;5048873;28;20024;-70
2024/01/04 02:39:12;;;;;;;7.63;2.30;;;;;;;7.49;100.00;99704.69;5048966;28;20846;-70
2024/01/04 02:41:38;;;;;;;11.25;2.90;;;;;;;7.48;100.00;99709.16;5048963;28;20037;-70
2024/01/04 02:44:04;;;;;;;7.70;2.67;;;;;;;7.50;100.00;99707.13;5049028;28;20028;-70
2024/01/04 02:46:29;;;;;;;9.90;3.75;;;;;;;7.51;100.00;99718.56;5049818;28;20060;-75
2024/01/04 02:48:54;;;;;;;7.63;2.53;;;;;;;7.50;100.00;99724.91;5050907;28;20017;-75
2024/01/04 02:51:20;;;;;;;7.00;2.53;;;;;;;7.48;100.00;99722.44;5050993;28;20037;-75
2024/01/04 02:53:45;;;;;;;12.18;3.60;;;;;;;7.47;100.00;99721.63;5050939;28;20623;-75
2024/01/04 02:56:10;;;;;;;6.47;3.30;;;;;;;7.51;100.00;99721.22;5051076;28;20430;-75
2024/01/04 02:58:36;;;;;;;7.05;2.63;;;;;;;7.50;100.00;99723.06;5052272;28;20021;-75
2024/01/04 03:01:01;;;;;;;10.25;2.75;;;;;;;7.50;100.00;99719.59;5055594;28;20473;-75
2024/01/04 03:03:27;;;;;;;8.57;2.40;;;;;;;7.50;100.00;99725.72;5054743;28;20197;-75
2024/01/04 03:05:52;;;;;;;10.63;2.45;;;;;;;7.48;100.00;99730.41;5054787;28;20094;-75
2024/01/04 03:08:17;;;;;;;11.25;2.90;;;;;;;7.47;100.00;99739.38;5054575;28;20033;-75
2024/01/04 03:10:43;;;;;;;6.03;2.53;;;;;;;7.44;100.00;99732.66;5054952;28;20027;-75
2024/01/04 03:13:08;;;;;;;5.22;2.20;;;;;;;7.44;100.00;99745.06;5054999;28;20115;-75
2024/01/04 03:15:33;;;;;;;12.43;3.15;;;;;;;7.42;100.00;99741.84;5054896;28;20041;-75
2024/01/04 03:17:59;;;;;;;5.22;2.40;;;;;;;7.38;100.00;99743.25;5054584;28;20071;-75
2024/01/04 03:20:24;;;;;;;7.88;2.78;;;;;;;7.37;100.00;99746.94;5054765;28;20468;-75
2024/01/04 03:22:49;;;;;;;9.75;2.92;;;;;;;7.34;100.00;99748.16;5054834;28;20048;-75
2024/01/04 03:25:15;;;;;;;9.68;4.15;;;;;;;7.32;100.00;99752.03;5054844;28;20732;-75
2024/01/04 03:27:41;;;;;;;7.13;2.28;;;;;;;7.34;100.00;99771.22;5053386;28;20049;-75
2024/01/04 03:30:07;;;;;;;6.97;2.33;;;;;;;7.32;100.00;99760.78;5054580;28;20036;-75
2024/01/04 03:32:33;;;;;;;9.30;1.90;;;;;;;7.36;100.00;99774.44;5054124;28;20434;-75
2024/01/04 03:34:58;;;;;;;4.00;1.73;;;;;;;7.39;100.00;99774.06;5053935;28;20028;-75
2024/01/04 03:37:24;;;;;;;8.90;2.55;;;;;;;7.38;100.00;99772.41;5052486;28;20400;-75
2024/01/04 03:39:49;;;;;;;6.07;2.25;;;;;;;7.39;100.00;99782.84;5053658;28;20083;-75
2024/01/04 03:42:15;;;;;;;6.10;2.13;;;;;;;7.38;100.00;99794.44;5052691;28;20025;-75
2024/01/04 03:44:42;;;;;;;8.13;2.28;;;;;;;7.40;100.00;99797.72;5053820;28;20481;-75
2024/01/04 03:47:07;;;;;;;8.40;2.38;;;;;;;7.41;100.00;99796.72;5052178;28;20450;-75
2024/01/04 03:49:33;;;;;;;10.75;3.05;;;;;;;7.37;100.00;99802.63;5053498;28;20024;-75
2024/01/04 03:51:58;;;;;;;5.93;2.50;;;;;;;7.42;100.00;99811.59;5053559;28;20460;-75
2024/01/04 03:54:23;;;;;;;3.55;2.15;;;;;;;7.41;100.00;99804.69;5053246;28;20025;-75
2024/01/04 03:56:49;;;;;;;7.07;2.63;;;;;;;7.41;100.00;99803.84;5053260;28;20032;-75
2024/01/04 03:59:14;;;;;;;19.52;3.67;;;;;;;7.39;100.00;99809.38;5053133;28;20040;-75
2024/01/04 04:01:44;;;;;;;11.52;3.72;;;;;;;7.40;100.00;99812.84;5053310;28;20060;-75
2024/01/04 04:04:09;;;;;;;12.00;2.80;;;;;;;7.39;100.00;99814.66;5053217;28;20476;-75
2024/01/04 04:06:34;;;;;;;5.57;2.78;;;;;;;7.38;100.00;99809.56;5053148;28;20032;-75
2024/01/04 04:09:00;;;;;;;6.03;3.08;;;;;;;7.36;100.00;99809.78;5053136;28;20020;-75
2024/01/04 04:11:25;;;;;;;7.97;2.58;;;;;;;7.39;100.00;99819.97;5052209;28;20033;-75
2024/01/04 04:13:51;;;;;;;7.03;3.05;;;;;;;7.35;100.00;99816.06;5052123;28;20083;-75
2024/01/04 04:16:16;;;;;;;4.22;2.25;;;;;;;7.40;100.00;99820.78;5053101;28;20033;-75
2024/01/04 04:18:41;;;;;;;6.47;2.70;;;;;;;7.36;100.00;99812.44;5051808;28;20044;-75
2024/01/04 04:21:07;;;;;;;10.80;2.50;;;;;;;7.36;100.00;99820.38;5053071;28;20071;-75
2024/01/04 04:23:32;;;;;;;7.45;3.33;;;;;;;7.35;100.00;99831.19;5052952;28;20048;-75
2024/01/04 04:25:57;;;;;;;18.38;3.28;;;;;;;7.31;100.00;99828.13;5053068;28;20086;-75
2024/01/04 04:28:23;;;;;;;6.20;2.88;;;;;;;7.27;100.00;99831.38;5052893;28;20044;-75
2024/01/04 04:30:48;;;;;;;12.00;3.53;;;;;;;7.22;100.00;99837.25;5052865;28;20033;-75
2024/01/04 04:33:13;;;;;;;8.27;3.90;;;;;;;7.20;100.00;99839.28;5052964;28;20029;-75
2024/01/04 04:35:39;;;;;;;7.30;3.33;;;;;;;7.16;100.00;99851.34;5052941;28;20032;-75
2024/01/04 04:38:04;;;;;;;8.70;3.22;;;;;;;7.14;100.00;99856.00;5052894;28;20544;-75
2024/01/04 04:40:29;;;;;;;11.18;3.95;;;;;;;7.12;100.00;99856.19;5052693;28;20460;-75
2024/01/04 04:42:54;;;;;;;11.23;3.63;;;;;;;7.07;100.00;99852.50;5052888;28;20400;-75
2024/01/04 04:45:20;;;;;;;7.63;2.83;;;;;;;7.08;100.00;99859.47;5052700;28;20057;-75
2024/01/04 04:47:45;;;;;;;12.95;3.92;;;;;;;7.07;100.00;99869.22;5053009;28;20040;-75
2024/01/04 04:50:11;;;;;;;8.80;2.80;;;;;;;7.08;100.00;99872.72;5052472;28;20040;-75
2024/01/04 04:52:36;;;;;;;11.05;4.03;;;;;;;7.09;100.00;99866.38;5052805;28;20033;-75
2024/01/04 04:55:02;;;;;;;10.90;2.13;;;;;;;7.14;100.00;99869.25;5051238;28;20110;-75
2024/01/04 04:57:27;;;;;;;9.07;3.63;;;;;;;7.17;100.00;99874.16;5051990;28;20036;-70
2024/01/04 04:59:52;;;;;;;7.85;2.97;;;;;;;7.15;100.00;99886.78;5049321;28;20126;-70
2024/01/04 05:02:18;;;;;;;7.95;3.42;;;;;;;7.08;100.00;99878.84;5050734;28;20995;-67
2024/01/04 05:04:43;;;;;;;8.27;3.08;;;;;;;7.18;100.00;99886.44;5050616;28;20036;-67
2024/01/04 05:07:09;;;;;;;7.88;2.95;;;;;;;7.20;100.00;99889.69;5050562;28;20033;-67
2024/01/04 05:09:35;;;;;;;6.28;2.45;;;;;;;7.22;100.00;99887.66;5050601;28;20029;-69
2024/01/04 05:12:00;;;;;;;4.13;2.10;;;;;;;7.15;100.00;99871.72;5050370;28;20040;-70
2024/01/04 05:14:25;;;;;;;4.43;2.15;;;;;;;7.25;100.00;99895.19;5050316;28;20053;-70
2024/01/04 05:16:51;;;;;;;4.13;2.10;;;;;;;7.24;100.00;99899.69;5050315;28;20036;-70
2024/01/04 05:19:16;;;;;;;4.47;1.60;;;;;;;7.23;100.00;99894.56;5050123;28;20051;-70
2024/01/04 05:21:41;;;;;;;3.83;1.55;;;;;;;7.22;100.00;99901.72;5049947;28;20029;-70
2024/01/04 05:24:07;;;;;;;6.40;1.48;;;;;;;7.24;100.00;99898.88;5050241;28;20028;-70
2024/01/04 05:26:32;;;;;;;2.58;1.95;;;;;;;7.17;100.00;99890.06;5050068;28;20048;-70
2024/01/04 05:28:58;;;;;;;7.93;1.55;;;;;;;7.22;100.00;99901.72;5050040;28;20032;-70
2024/01/04 05:31:25;;;;;;;2.78;1.25;;;;;;;7.21;100.00;99905.41;5050126;28;20029;-70
2024/01/04 05:33:50;;;;;;;2.78;1.33;;;;;;;7.22;100.00;99909.69;5049995;28;20062;-69
2024/01/04 05:36:16;;;;;;;1.75;1.23;;;;;;;7.23;100.00;99916.63;5049923;28;20495;-70
2024/01/04 05:38:41;;;;;;;2.15;1.35;;;;;;;7.25;100.00;99932.34;5049886;28;20033;-70
2024/01/04 05:41:07;;;;;;;3.15;1.50;;;;;;;7.26;100.00;99931.34;5048624;28;20029;-70
2024/01/04 05:43:34;;;;;;;3.55;1.20;;;;;;;7.25;100.00;99929.69;5049959;28;20119;-70
2024/01/04 05:46:04;;;;;;;4.53;1.70;;;;;;;7.21;100.00;99929.28;5048303;28;20467;-70
2024/01/04 05:48:30;;;;;;;2.00;1.45;;;;;;;7.24;100.00;99939.47;5049550;28;20086;-70
2024/01/04 05:50:56;;;;;;;3.15;1.70;;;;;;;7.20;100.00;99932.94;5049462;28;20055;-70
2024/01/04 05:53:21;;;;;;;7.15;2.45;;;;;;;7.20;100.00;99932.94;5049670;28;20488;-70
2024/01/04 05:55:47;;;;;;;3.45;1.60;;;;;;;7.22;100.00;99946.81;5049470;28;20076;-70
2024/01/04 05:58:12;;;;;;;6.22;2.38;;;;;;;7.18;100.00;99956.19;5049441;28;20058;-70
2024/01/04 06:00:37;;;;;;;5.63;2.60;;;;;;;7.12;100.00;99954.28;5049379;28;20021;-70
2024/01/04 06:03:03;;;;;;;8.23;3.03;;;;;;;7.11;100.00;99963.28;5049414;28;20037;-70
2024/01/04 06:05:29;;;;;;;7.85;3.20;;;;;;;7.03;100.00;99956.31;5049655;28;20032;-70
2024/01/04 06:07:54;;;;;;;9.45;3.30;;;;;;;7.08;100.00;99962.88;5049395;28;20622;-70
2024/01/04 06:10:20;;;;;;;11.50;4.60;;;;;;;7.11;100.00;99970.41;5049218;28;20145;-70
2024/01/04 06:12:45;;;;;;;10.15;4.03;;;;;;;7.15;100.00;99969.84;5049035;28;20163;-70
2024/01/04 06:15:11;;;;;;;10.65;4.03;;;;;;;7.18;100.00;99971.28;5049203;28;20037;-70
2024/01/04 06:17:36;;;;;;;14.18;4.30;;;;;;;7.20;100.00;99972.72;5049087;28;20029;-70
2024/01/04 06:20:02;;;;;;;12.05;4.35;;;;;;;7.22;100.00;99973.31;5049242;28;20021;-70
2024/01/04 06:22:28;;;;;;;8.20;3.53;;;;;;;7.21;100.00;99976.19;5049199;28;20169;-70
2024/01/04 06:24:53;;;;;;;9.25;3.95;;;;;;;7.18;100.00;99979.25;5049053;28;20119;-70
2024/01/04 06:27:18;;;;;;;9.65;4.00;;;;;;;7.17;100.00;99983.69;5049161;28;20407;-70
2024/01/04 06:29:44;;;;;;;8.85;3.13;;;;;;;7.18;100.00;99995.16;5048935;28;20093;-70
2024/01/04 06:32:09;;;;;;;6.65;2.90;;;;;;;7.13;100.00;99990.44;5049206;28;20203;-70
2024/01/04 06:34:35;;;;;;;5.20;2.17;;;;;;;7.18;100.00;99997.81;5048354;28;20513;-70
2024/01/04 06:37:00;;;;;;;10.73;4.95;;;;;;;7.10;100.00;99992.63;5049046;28;20081;-69
2024/01/04 06:39:28;;;;;;;5.28;2.45;;;;;;;7.05;100.00;99992.38;5048803;28;20579;-70
2024/01/04 06:41:53;;;;;;;4.32;2.15;;;;;;;7.06;100.00;100012.59;5048899;28;20111;-70
2024/01/04 06:44:19;;;;;;;8.68;2.97;;;;;;;7.02;100.00;100010.34;5048814;28;20124;-70
2024/01/04 06:46:44;;;;;;;7.75;2.78;;;;;;;7.00;100.00;100022.97;5048727;28;20057;-70
2024/01/04 06:49:09;;;;;;;12.13;3.20;;;;;;;6.95;100.00;100022.72;5048799;28;20036;-70
2024/01/04 06:51:35;;;;;;;4.03;2.75;;;;;;;6.93;100.00;100034.53;5048880;28;20040;-70
2024/01/04 06:54:00;;;;;;;5.95;2.63;;;;;;;6.91;100.00;100026.78;5048824;28;20532;-69
2024/01/04 06:56:25;;;;;;;6.47;2.92;;;;;;;6.89;100.00;100025.31;5048603;28;20035;-70
2024/01/04 06:58:51;;;;;;;5.55;2.75;;;;;;;6.94;100.00;100042.31;5048446;28;20040;-70
2024/01/04 07:01:18;;;;;;;8.48;2.67;;;;;;;6.95;100.00;100045.78;5048578;28;20037;-70
2024/01/04 07:03:44;;;;;;;10.85;3.67;;;;;;;6.99;100.00;100049.66;5048641;28;20500;-70
2024/01/04 07:06:09;;;;;;;7.40;3.85;;;;;;;7.00;100.00;100065.38;5048590;28;20112;-70
2024/01/04 07:08:34;;;;;;;9.43;3.97;;;;;;;7.01;100.00;100059.06;5048731;28;20063;-70
2024/01/04 07:11:04;;;;;;;15.07;4.40;;;;;;;6.99;100.00;100060.25;5048606;28;20029;-70
2024/01/04 07:13:29;;;;;;;8.70;3.17;;;;;;;7.02;100.00;100060.72;5048731;28;20028;-69
2024/01/04 07:15:54;;;;;;;12.88;3.53;;;;;;;6.98;100.00;100067.41;5048655;28;20021;-70
2024/01/04 07:18:20;;;;;;;7.22;3.70;;;;;;;7.00;100.00;100064.56;5048627;28;20033;-70
2024/01/04 07:20:45;;;;;;;6.18;2.78;;;;;;;7.03;100.00;100075.59;5048593;28;20125;-70
2024/01/04 07:23:10;;;;;;;6.97;2.85;;;;;;;7.03;100.00;100082.75;5048578;28;20055;-69
2024/01/04 07:25:36;;;;;;;5.43;2.25;;;;;;;7.01;100.00;100090.88;5048782;28;20040;-70
2024/01/04 07:28:03;;;;;;;10.35;3.58;;;;;;;7.00;100.00;100091.09;5048542;28;20044;-70
2024/01/04 07:30:28;;;;;;;8.40;3.38;;;;;;;6.98;100.00;100091.25;5048449;28;20078;-70
2024/01/04 07:32:54;;;;;;;7.13;3.65;;;;;;;6.97;100.00;100100.25;5048436;28;20123;-70
2024/01/04 07:35:23;;;;;;;6.13;2.58;;;;;;;6.92;100.00;100086.75;5048528;28;20108;-70
2024/01/04 07:37:48;;;;;;;9.25;3.67;;;;;;;6.96;100.00;100095.13;5048354;28;20115;-69
2024/01/04 07:40:14;;;;;;;12.50;3.88;;;;;;;6.94;100.00;100097.97;5048424;28;20024;-69
2024/01/04 07:42:40;;;;;;;6.30;2.25;;;;;;;6.90;100.00;100091.41;5048283;28;20976;-70
2024/01/04 07:45:05;;;;;;;4.93;1.75;;;;;;;6.92;100.00;100109.78;5050209;28;20045;-70
2024/01/04 07:47:31;;;;;;;7.00;2.28;;;;;;;6.93;100.00;100119.38;5052133;28;20055;-70
2024/01/04 07:49:56;;;;;;;4.82;2.80;;;;;;;6.91;100.00;100124.84;5051752;28;20104;-70
2024/01/04 07:52:21;;;;;;;5.63;2.47;;;;;;;6.91;100.00;100118.72;5051128;28;20047;-70
2024/01/04 07:54:47;;;;;;;4.35;1.95;;;;;;;6.85;100.00;100115.00;5051487;28;20487;-70
2024/01/04 07:57:13;;;;;;;6.72;3.58;;;;;;;6.88;100.00;100116.47;5050507;28;20429;-70
2024/01/04 07:59:38;;;;;;;4.78;2.47;;;;;;;6.93;100.00;100120.19;5051402;28;20037;-69
2024/01/04 08:02:03;;;;;;;6.90;2.78;;;;;;;6.93;100.00;100122.81;5051039;28;20028;-70
2024/01/04 08:04:29;;;;;;;8.30;2.78;;;;;;;6.97;100.00;100129.41;5051598;28;20069;-70
2024/01/04 08:06:55;;;;;;;8.90;3.47;;;;;;;6.96;100.00;100127.75;5051698;28;20028;-70
2024/01/04 08:09:21;;;;;;;8.63;3.22;;;;;;;7.00;100.00;100129.00;5051441;28;20380;-70
2024/01/04 08:11:46;;;;;;;11.20;3.70;;;;;;;7.03;100.00;100133.13;5051561;28;20039;-70
2024/01/04 08:14:12;;;;;;;6.40;3.28;;;;;;;7.03;100.00;100136.59;5051524;28;20060;-70
2024/01/04 08:16:38;;;;;;;15.43;3.40;;;;;;;7.02;100.00;100140.25;5051549;28;20063;-70
2024/01/04 08:19:04;;;;;;;7.13;3.08;;;;;;;7.03;100.00;100144.53;5051512;28;20090;-69
2024/01/04 08:21:29;;;;;;;14.55;3.58;;;;;;;7.05;100.00;100148.81;5051365;28;20025;-70
2024/01/04 08:23:54;;;;;;;12.45;3.60;;;;;;;7.06;100.00;100145.19;5051529;28;20039;-70
2024/01/04 08:26:20;;;;;;;8.18;4.38;;;;;;;7.08;100.00;100148.47;5050458;28;20025;-69
2024/01/04 08:28:45;;;;;;;8.45;3.25;;;;;;;7.09;100.00;100153.56;5050236;28;20469;-70
2024/01/04 08:31:11;;;;;;;8.80;2.95;;;;;;;7.12;100.00;100155.81;5048727;28;20029;-70
2024/01/04 08:33:36;;;;;;;10.00;3.75;;;;;;;7.13;100.00;100154.00;5048672;28;20105;-70
2024/01/04 08:36:02;;;;;;;8.10;3.17;;;;;;;7.15;100.00;100150.16;5048904;28;20129;-69
2024/01/04 08:38:29;;;;;;;8.50;3.90;;;;;;;7.18;100.00;100160.38;5048275;28;20073;-69
2024/01/04 08:40:55;;;;;;;12.43;4.88;;;;;;;7.27;100.00;100160.25;5049013;28;20083;-68
2024/01/04 08:43:20;;;;;;;9.07;3.97;;;;;;;7.31;100.00;100156.16;5049062;28;20051;-69
2024/01/04 08:45:46;;;;;;;10.07;3.67;;;;;;;7.32;100.00;100156.00;5048900;28;20068;-69
2024/01/04 08:48:11;;;;;;;11.18;3.85;;;;;;;7.37;100.00;100166.03;5048975;28;20142;-69
2024/01/04 08:50:36;;;;;;;10.02;3.92;;;;;;;7.38;100.00;100162.34;5049209;28;20037;-68
2024/01/04 08:53:02;;;;;;;8.85;3.70;;;;;;;7.40;100.00;100176.25;5048652;28;20190;-69
2024/01/04 08:55:27;;;;;;;9.70;3.53;;;;;;;7.41;100.00;100176.06;5048704;28;20032;-71
2024/01/04 08:57:52;;;;;;;12.35;3.88;;;;;;;7.42;100.00;100180.34;5048893;28;20076;-70
2024/01/04 09:00:18;;;;;;;9.50;4.28;;;;;;;7.44;100.00;100186.28;5050678;28;20124;-70
2024/01/04 09:02:45;;;;;;;11.23;4.00;;;;;;;7.44;100.00;100185.44;5050741;28;20380;-70
2024/01/04 09:05:11;;;;;;;10.38;3.65;;;;;;;7.44;100.00;100183.66;5050632;28;20515;-70
2024/01/04 09:07:37;;;;;;;7.25;3.65;;;;;;;7.45;100.00;100190.56;5050622;28;20025;-70
2024/01/04 09:10:04;;;;;;;9.77;4.25;;;;;;;7.46;100.00;100188.75;5050335;28;20043;-70
2024/01/04 09:12:29;;;;;;;8.02;2.80;;;;;;;7.53;100.00;100194.09;5050372;28;20104;-70
2024/01/04 09:14:54;;;;;;;8.43;3.22;;;;;;;7.59;100.00;100190.66;5050376;28;20128;-70
2024/01/04 09:17:20;;;;;;;7.20;3.17;;;;;;;7.62;100.00;100196.44;5050518;28;20068;-70
2024/01/04 09:19:46;;;;;;;10.52;3.40;;;;;;;7.63;100.00;100197.25;5050387;28;20033;-70
2024/01/04 09:22:12;;;;;;;9.20;2.95;;;;;;;7.63;100.00;100198.06;5050371;28;20043;-70
2024/01/04 09:24:38;;;;;;;7.47;2.67;;;;;;;7.63;100.00;100202.56;5050149;28;20025;-70
2024/01/04 09:27:04;;;;;;;7.05;2.30;;;;;;;7.62;100.00;100201.75;5050609;28;20029;-70
2024/01/04 09:29:29;;;;;;;6.55;2.30;;;;;;;7.64;100.00;100210.31;5050073;28;20107;-70
2024/01/04 09:31:55;;;;;;;5.22;2.58;;;;;;;7.66;100.00;100210.94;5050353;28;20025;-70
2024/01/04 09:34:21;;;;;;;5.57;2.47;;;;;;;7.67;100.00;100209.91;5048963;28;20033;-70
2024/01/04 09:36:46;;;;;;;5.57;2.22;;;;;;;7.69;100.00;100215.84;5049800;28;20025;-70
2024/01/04 09:39:17;;;;;;;7.57;2.83;;;;;;;7.73;100.00;100218.97;5048442;28;20507;-70
2024/01/04 09:41:46;;;;;;;4.18;1.75;;;;;;;7.77;100.00;100222.84;5049839;28;20033;-70
2024/01/04 09:44:13;;;;;;;5.60;2.00;;;;;;;7.75;100.00;100230.19;5049561;28;20024;-70
2024/01/04 09:46:39;;;;;;;4.30;1.77;;;;;;;7.71;100.00;100223.63;5049684;28;20102;-70
2024/01/04 09:49:06;;;;;;;6.78;2.42;;;;;;;7.74;100.00;100235.69;5048393;28;20111;-69
2024/01/04 09:51:38;;;;;;;6.60;1.88;;;;;;;7.72;100.00;100241.19;5049680;28;20087;-72
2024/01/04 09:54:07;;;;;;;2.05;1.42;;;;;;;7.71;100.00;100239.56;5049681;28;20025;-69
2024/01/04 09:56:40;;;;;;;5.68;1.77;;;;;;;7.73;100.00;100242.84;5049945;28;20064;-69
2024/01/04 09:59:07;;;;;;;3.63;1.73;;;;;;;7.78;100.00;100253.72;5049671;28;20021;-70
2024/01/04 10:01:34;;;;;;;4.50;1.80;;;;;;;7.75;100.00;100254.06;5049582;28;20051;-70
2024/01/04 10:04:04;;;;;;;2.65;1.60;;;;;;;7.76;100.00;100258.38;5049620;28;20028;-69
2024/01/04 10:06:32;;;;;;;2.03;1.30;;;;;;;7.67;100.00;100240.94;5049425;28;20369;-69
2024/01/04 10:09:14;;;;;;;10.90;1.88;;;;;;;7.75;100.00;100269.19;5048619;28;20021;-70
2024/01/04 10:11:47;;;;;;;1.60;1.50;;;;;;;7.65;100.00;100262.41;5049204;28;20561;-69
2024/01/04 10:14:13;;;;;;;2.95;0.93;;;;;;;7.67;100.00;100270.16;5049307;28;20039;-69
2024/01/04 10:16:40;;;;;;;2.38;1.48;;;;;;;7.66;100.00;100271.97;5049292;28;21092;-69
2024/01/04 10:19:06;;;;;;;1.85;1.10;;;;;;;7.67;100.00;100270.97;5049101;28;20029;-69
2024/01/04 10:21:33;;;;;;;4.00;1.25;;;;;;;7.68;100.00;100285.06;5049216;28;20056;-69
2024/01/04 10:24:00;;;;;;;1.35;1.00;;;;;;;7.63;100.00;100271.56;5049116;28;20381;-69
2024/01/04 10:26:26;;;;;;;2.85;1.10;;;;;;;7.65;100.00;100277.47;5049049;28;20025;-70
2024/01/04 10:28:56;;;;;;;2.33;1.00;;;;;;;7.62;100.00;100278.69;5049170;28;20035;-69
2024/01/04 10:31:22;;;;;;;2.88;0.95;;;;;;;7.59;100.00;100281.72;5049068;28;20073;-69
2024/01/04 10:33:55;;;;;;;3.10;1.00;;;;;;;7.56;100.00;100276.78;5049121;28;20068;-70
2024/01/04 10:36:22;;;;;;;3.42;1.48;;;;;;;7.62;100.00;100275.19;5031057;28;20078;-69
2024/01/04 10:38:47;;;;;;;2.13;1.10;;;;;;;7.65;100.00;100272.16;5047599;28;20040;-69
2024/01/04 10:41:17;;;;;;;1.67;0.70;;;;;;;7.75;100.00;100277.97;5047262;28;20033;-69
2024/01/04 10:43:43;;;;;;;1.88;0.88;;;;;;;7.73;100.00;100276.50;5048845;28;20554;-69
2024/01/04 10:46:08;;;;;;;1.05;0.80;;;;;;;7.74;100.00;100280.81;5048716;28;20060;-69
2024/01/04 10:48:38;;;;;;;3.90;1.45;;;;;;;7.81;100.00;100274.56;5048756;28;20044;-70
2024/01/04 10:51:06;;;;;;;4.97;1.30;;;;;;;7.80;100.00;100286.16;5048866;28;20094;-70
2024/01/04 10:53:38;;;;;;;3.80;0.95;;;;;;;7.82;100.00;100286.81;5048824;28;20487;-70
2024/01/04 10:56:04;;;;;;;2.75;1.05;;;;;;;7.85;100.00;100288.25;5048810;28;20087;-70
2024/01/04 10:58:35;;;;;;;2.75;1.23;;;;;;;7.88;100.00;100294.00;5048691;28;20082;-69
2024/01/04 11:01:02;;;;;;;2.95;1.38;;;;;;;7.96;100.00;100306.31;5048795;28;20029;-70
2024/01/04 11:03:31;;;;;;;3.85;1.73;;;;;;;7.98;100.00;100300.81;5048690;28;20029;-69
2024/01/04 11:06:00;;;;;;;4.97;2.00;;;;;;;7.97;100.00;100301.84;5048673;28;20408;-69
2024/01/04 11:08:27;;;;;;;8.15;2.08;;;;;;;8.00;100.00;100293.47;5047063;28;20029;-70
2024/01/04 11:10:53;;;;;;;2.90;1.73;;;;;;;7.97;100.00;100294.69;5048377;28;20027;-70
2024/01/04 11:13:19;;;;;;;3.63;1.30;;;;;;;8.00;100.00;100296.97;5048761;28;20074;-70
2024/01/04 11:15:45;;;;;;;4.85;1.88;;;;;;;7.93;100.00;100301.38;5048656;28;20033;-70
2024/01/04 11:18:21;;;;;;;2.70;1.67;;;;;;;7.91;100.00;100300.75;5047307;28;20485;-70
2024/01/04 11:21:10;;;;;;;5.82;1.80;;;;;;;7.86;100.00;100293.38;5051766;28;20140;-70
2024/01/04 11:24:00;;;;;;;2.95;1.52;;;;;;;7.86;100.00;100297.88;5052650;28;20024;-69